sensor_id;sensor_type;location;lat;lon;timestamp;pressure;altitude;pressure_sealevel;temperature;humidity
3960;BME280;1994;48.640;8.894;2023-04-09T00:02:17;96770.31;;;6.96;84.83
3960;BME280;1994;48.640;8.894;2023-04-09T00:04:43;96769.16;;;7.05;84.70
3960;BME280;1994;48.640;8.894;2023-04-09T00:07:09;96765.56;;;6.99;85.00
3960;BME280;1994;48.640;8.894;2023-04-09T00:09:35;96753.84;;;6.97;85.08
3960;BME280;1994;48.640;8.894;2023-04-09T00:12:00;96761.22;;;7.00;85.40
3960;BME280;1994;48.640;8.894;2023-04-09T00:14:31;96755.25;;;6.93;85.50
3960;BME280;1994;48.640;8.894;2023-04-09T00:16:57;96762.41;;;7.04;84.82
3960;BME280;1994;48.640;8.894;2023-04-09T00:19:22;96755.25;;;6.93;84.53
3960;BME280;1994;48.640;8.894;2023-04-09T00:21:48;96750.06;;;6.80;85.37
3960;BME280;1994;48.640;8.894;2023-04-09T00:24:14;96752.06;;;6.84;85.48
3960;BME280;1994;48.640;8.894;2023-04-09T00:26:40;96758.78;;;6.79;85.55
3960;BME280;1994;48.640;8.894;2023-04-09T00:29:06;96751.25;;;6.84;85.19
3960;BME280;1994;48.640;8.894;2023-04-09T00:31:31;96744.53;;;6.83;85.07
3960;BME280;1994;48.640;8.894;2023-04-09T00:33:59;96751.25;;;6.84;85.28
3960;BME280;1994;48.640;8.894;2023-04-09T00:36:25;96747.47;;;6.67;85.27
3960;BME280;1994;48.640;8.894;2023-04-09T00:38:50;96747.03;;;6.57;85.93
3960;BME280;1994;48.640;8.894;2023-04-09T00:41:18;96746.47;;;6.68;85.84
3960;BME280;1994;48.640;8.894;2023-04-09T00:43:44;96742.75;;;6.77;85.74
3960;BME280;1994;48.640;8.894;2023-04-09T00:46:10;96745.31;;;6.77;85.67
3960;BME280;1994;48.640;8.894;2023-04-09T00:48:35;96737.75;;;6.69;85.48
3960;BME280;1994;48.640;8.894;2023-04-09T00:51:01;96747.09;;;6.70;85.79
3960;BME280;1994;48.640;8.894;2023-04-09T00:53:27;96746.03;;;6.58;85.79
3960;BME280;1994;48.640;8.894;2023-04-09T00:55:54;96743.66;;;6.50;86.38
3960;BME280;1994;48.640;8.894;2023-04-09T00:58:20;96747.56;;;6.46;86.70
3960;BME280;1994;48.640;8.894;2023-04-09T01:00:46;96745.19;;;6.38;86.71
3960;BME280;1994;48.640;8.894;2023-04-09T01:03:11;96738.44;;;6.37;87.17
3960;BME280;1994;48.640;8.894;2023-04-09T01:05:53;96741.63;;;6.39;87.01
3960;BME280;1994;48.640;8.894;2023-04-09T01:11:23;96744.88;;;6.67;86.30
3960;BME280;1994;48.640;8.894;2023-04-09T01:14:18;96746.09;;;6.71;86.12
3960;BME280;1994;48.640;8.894;2023-04-09T01:16:52;96741.75;;;6.78;85.79
3960;BME280;1994;48.640;8.894;2023-04-09T01:22:02;96742.88;;;6.56;86.34
3960;BME280;1994;48.640;8.894;2023-04-09T01:24:51;96744.44;;;6.57;86.46
3960;BME280;1994;48.640;8.894;2023-04-09T01:27:21;96742.47;;;6.59;86.70
3960;BME280;1994;48.640;8.894;2023-04-09T01:29:50;96745.66;;;6.61;86.39
3960;BME280;1994;48.640;8.894;2023-04-09T01:32:18;96739.94;;;6.72;86.27
3960;BME280;1994;48.640;8.894;2023-04-09T01:34:46;96748.47;;;6.79;86.38
3960;BME280;1994;48.640;8.894;2023-04-09T01:37:13;96746.69;;;6.86;85.82
3960;BME280;1994;48.640;8.894;2023-04-09T01:39:41;96746.91;;;6.78;85.92
3960;BME280;1994;48.640;8.894;2023-04-09T01:42:08;96748.47;;;6.79;86.24
3960;BME280;1994;48.640;8.894;2023-04-09T01:44:38;96753.47;;;6.87;86.18
3960;BME280;1994;48.640;8.894;2023-04-09T01:47:06;96750.09;;;6.93;85.87
3960;BME280;1994;48.640;8.894;2023-04-09T01:49:33;96740.19;;;6.90;85.71
3960;BME280;1994;48.640;8.894;2023-04-09T01:52:00;96744.31;;;6.78;86.32
3960;BME280;1994;48.640;8.894;2023-04-09T01:54:26;96740.94;;;6.71;86.69
3960;BME280;1994;48.640;8.894;2023-04-09T01:56:52;96746.66;;;6.60;87.49
3960;BME280;1994;48.640;8.894;2023-04-09T01:59:17;96744.06;;;6.60;87.61
3960;BME280;1994;48.640;8.894;2023-04-09T02:02:01;96748.03;;;6.56;87.42
3960;BME280;1994;48.640;8.894;2023-04-09T02:04:39;96748.03;;;6.56;87.94
3960;BME280;1994;48.640;8.894;2023-04-09T02:07:13;96749.59;;;6.57;88.12
3960;BME280;1994;48.640;8.894;2023-04-09T02:09:41;96740.06;;;6.51;88.10
3960;BME280;1994;48.640;8.894;2023-04-09T02:12:13;96738.88;;;6.47;88.20
3960;BME280;1994;48.640;8.894;2023-04-09T02:14:41;96748.78;;;6.50;88.59
3960;BME280;1994;48.640;8.894;2023-04-09T02:17:12;96737.28;;;6.46;88.96
3960;BME280;1994;48.640;8.894;2023-04-09T02:19:42;96739.84;;;6.46;88.78
3960;BME280;1994;48.640;8.894;2023-04-09T02:22:10;96737.69;;;6.43;88.94
3960;BME280;1994;48.640;8.894;2023-04-09T02:24:36;96741.25;;;6.48;88.71
3960;BME280;1994;48.640;8.894;2023-04-09T02:27:03;96738.53;;;6.56;88.13
3960;BME280;1994;48.640;8.894;2023-04-09T02:29:29;96738.13;;;6.59;88.12
3960;BME280;1994;48.640;8.894;2023-04-09T02:31:55;96740.84;;;6.45;88.37
3960;BME280;1994;48.640;8.894;2023-04-09T02:34:21;96735.66;;;6.38;88.58
3960;BME280;1994;48.640;8.894;2023-04-09T02:36:47;96739.19;;;6.31;89.38
3960;BME280;1994;48.640;8.894;2023-04-09T02:39:13;96736.03;;;6.29;89.53
3960;BME280;1994;48.640;8.894;2023-04-09T02:41:39;96738.78;;;6.27;89.75
3960;BME280;1994;48.640;8.894;2023-04-09T02:44:04;96739.06;;;6.39;89.16
3960;BME280;1994;48.640;8.894;2023-04-09T02:46:30;96737.28;;;6.46;89.07
3960;BME280;1994;48.640;8.894;2023-04-09T02:48:56;96739.28;;;6.44;88.74
3960;BME280;1994;48.640;8.894;2023-04-09T02:51:22;96736.69;;;6.44;89.07
3960;BME280;1994;48.640;8.894;2023-04-09T02:53:47;96737.88;;;6.48;88.87
3960;BME280;1994;48.640;8.894;2023-04-09T02:56:13;96734.97;;;6.64;88.57
3960;BME280;1994;48.640;8.894;2023-04-09T02:58:39;96743.69;;;6.63;88.47
3960;BME280;1994;48.640;8.894;2023-04-09T03:01:05;96734.94;;;6.51;88.68
3960;BME280;1994;48.640;8.894;2023-04-09T03:03:30;96733.34;;;6.50;88.69
3960;BME280;1994;48.640;8.894;2023-04-09T03:05:56;96734.16;;;6.57;88.57
3960;BME280;1994;48.640;8.894;2023-04-09T03:08:22;96728.81;;;6.58;88.42
3960;BME280;1994;48.640;8.894;2023-04-09T03:10:48;96718.72;;;6.57;88.61
3960;BME280;1994;48.640;8.894;2023-04-09T03:13:14;96723.06;;;6.50;89.05
3960;BME280;1994;48.640;8.894;2023-04-09T03:15:40;96722.66;;;6.53;89.46
3960;BME280;1994;48.640;8.894;2023-04-09T03:18:06;96720.28;;;6.58;89.09
3960;BME280;1994;48.640;8.894;2023-04-09T03:20:31;96712.78;;;6.63;88.74
3960;BME280;1994;48.640;8.894;2023-04-09T03:22:57;96724.25;;;6.60;88.39
3960;BME280;1994;48.640;8.894;2023-04-09T03:25:23;96720.34;;;6.71;88.17
3960;BME280;1994;48.640;8.894;2023-04-09T03:27:48;96720.13;;;6.66;88.18
3960;BME280;1994;48.640;8.894;2023-04-09T03:30:14;96713.56;;;6.57;88.76
3960;BME280;1994;48.640;8.894;2023-04-09T03:32:40;96713.53;;;6.44;89.23
3960;BME280;1994;48.640;8.894;2023-04-09T03:35:06;96710.75;;;6.39;89.39
3960;BME280;1994;48.640;8.894;2023-04-09T03:37:32;96714.69;;;6.35;89.51
3960;BME280;1994;48.640;8.894;2023-04-09T03:39:57;96705.56;;;6.32;89.64
3960;BME280;1994;48.640;8.894;2023-04-09T03:42:23;96706.75;;;6.30;89.78
3960;BME280;1994;48.640;8.894;2023-04-09T03:44:49;96715.09;;;6.32;89.46
3960;BME280;1994;48.640;8.894;2023-04-09T03:47:17;96709.69;;;6.20;90.06
3960;BME280;1994;48.640;8.894;2023-04-09T03:49:43;96716.19;;;6.16;90.37
3960;BME280;1994;48.640;8.894;2023-04-09T03:52:08;96714.19;;;6.12;90.62
3960;BME280;1994;48.640;8.894;2023-04-09T03:54:36;96707.84;;;6.08;90.76
3960;BME280;1994;48.640;8.894;2023-04-09T03:57:02;96712.75;;;6.03;90.92
3960;BME280;1994;48.640;8.894;2023-04-09T03:59:29;96710.19;;;6.03;90.73
3960;BME280;1994;48.640;8.894;2023-04-09T04:01:54;96713.94;;;6.00;90.99
3960;BME280;1994;48.640;8.894;2023-04-09T04:04:20;96712.53;;;5.98;91.16
3960;BME280;1994;48.640;8.894;2023-04-09T04:06:46;96710.94;;;5.97;91.00
3960;BME280;1994;48.640;8.894;2023-04-09T04:09:11;96715.72;;;6.00;91.41
3960;BME280;1994;48.640;8.894;2023-04-09T04:11:37;96714.56;;;6.09;91.06
3960;BME280;1994;48.640;8.894;2023-04-09T04:14:03;96717.69;;;5.98;90.97
3960;BME280;1994;48.640;8.894;2023-04-09T04:16:28;96716.91;;;6.04;90.87
3960;BME280;1994;48.640;8.894;2023-04-09T04:18:54;96725.25;;;6.06;90.86
3960;BME280;1994;48.640;8.894;2023-04-09T04:21:20;96721.16;;;6.18;90.67
3960;BME280;1994;48.640;8.894;2023-04-09T04:23:46;96718.38;;;6.19;90.78
3960;BME280;1994;48.640;8.894;2023-04-09T04:26:11;96721.59;;;6.28;90.42
3960;BME280;1994;48.640;8.894;2023-04-09T04:28:40;96724.53;;;6.25;90.39
3960;BME280;1994;48.640;8.894;2023-04-09T04:31:10;96730.31;;;6.27;90.14
3960;BME280;1994;48.640;8.894;2023-04-09T04:33:38;96726.97;;;6.33;89.70
3960;BME280;1994;48.640;8.894;2023-04-09T04:36:09;96726.78;;;6.41;89.40
3960;BME280;1994;48.640;8.894;2023-04-09T04:38:35;96733.31;;;6.43;89.60
3960;BME280;1994;48.640;8.894;2023-04-09T04:41:04;96728.16;;;6.43;89.56
3960;BME280;1994;48.640;8.894;2023-04-09T04:43:30;96736.91;;;6.49;88.93
3960;BME280;1994;48.640;8.894;2023-04-09T04:45:57;96727.38;;;6.36;89.24
3960;BME280;1994;48.640;8.894;2023-04-09T04:48:33;96734.91;;;6.38;89.10
3960;BME280;1994;48.640;8.894;2023-04-09T04:51:01;96726.50;;;6.23;89.65
3960;BME280;1994;48.640;8.894;2023-04-09T04:53:26;96724.91;;;6.15;90.07
3960;BME280;1994;48.640;8.894;2023-04-09T04:55:53;96728.88;;;6.18;89.99
3960;BME280;1994;48.640;8.894;2023-04-09T04:58:19;96729.22;;;6.15;90.18
3960;BME280;1994;48.640;8.894;2023-04-09T05:00:47;96725.25;;;6.06;90.83
3960;BME280;1994;48.640;8.894;2023-04-09T05:03:13;96730.75;;;6.03;91.15
3960;BME280;1994;48.640;8.894;2023-04-09T05:05:39;96724.84;;;6.09;90.85
3960;BME280;1994;48.640;8.894;2023-04-09T05:08:05;96733.16;;;6.04;91.15
3960;BME280;1994;48.640;8.894;2023-04-09T05:10:31;96734.84;;;5.91;91.60
3960;BME280;1994;48.640;8.894;2023-04-09T05:12:57;96737.84;;;5.94;91.80
3960;BME280;1994;48.640;8.894;2023-04-09T05:15:22;96737.34;;;6.12;91.21
3960;BME280;1994;48.640;8.894;2023-04-09T05:17:48;96739.91;;;6.12;90.94
3960;BME280;1994;48.640;8.894;2023-04-09T05:20:14;96733.19;;;6.17;90.56
3960;BME280;1994;48.640;8.894;2023-04-09T05:22:40;96740.72;;;6.19;90.56
3960;BME280;1994;48.640;8.894;2023-04-09T05:25:06;96739.19;;;6.31;90.28
3960;BME280;1994;48.640;8.894;2023-04-09T05:27:32;96739.28;;;6.44;89.96
3960;BME280;1994;48.640;8.894;2023-04-09T05:29:58;96744.84;;;6.54;89.53
3960;BME280;1994;48.640;8.894;2023-04-09T05:32:24;96736.53;;;6.58;89.21
3960;BME280;1994;48.640;8.894;2023-04-09T05:34:49;96737.38;;;6.72;88.77
3960;BME280;1994;48.640;8.894;2023-04-09T05:37:15;96744.00;;;6.47;89.07
3960;BME280;1994;48.640;8.894;2023-04-09T05:39:41;96740.03;;;6.38;89.29
3960;BME280;1994;48.640;8.894;2023-04-09T05:42:06;96744.34;;;6.31;89.62
3960;BME280;1994;48.640;8.894;2023-04-09T05:44:32;96742.84;;;6.49;89.26
3960;BME280;1994;48.640;8.894;2023-04-09T05:46:58;96739.72;;;6.60;88.60
3960;BME280;1994;48.640;8.894;2023-04-09T05:49:24;96742.69;;;6.57;88.97
3960;BME280;1994;48.640;8.894;2023-04-09T05:51:50;96756.00;;;6.67;89.03
3960;BME280;1994;48.640;8.894;2023-04-09T05:54:16;96747.28;;;6.75;88.54
3960;BME280;1994;48.640;8.894;2023-04-09T05:56:42;96746.53;;;6.81;88.10
3960;BME280;1994;48.640;8.894;2023-04-09T05:59:08;96748.09;;;6.82;88.09
3960;BME280;1994;48.640;8.894;2023-04-09T06:01:34;96748.91;;;6.89;87.90
3960;BME280;1994;48.640;8.894;2023-04-09T06:03:59;96748.53;;;6.98;87.86
3960;BME280;1994;48.640;8.894;2023-04-09T06:06:25;96749.91;;;6.94;87.33
3960;BME280;1994;48.640;8.894;2023-04-09T06:08:51;96745.94;;;6.85;87.97
3960;BME280;1994;48.640;8.894;2023-04-09T06:11:17;96738.78;;;6.81;88.40
3960;BME280;1994;48.640;8.894;2023-04-09T06:13:43;96741.38;;;6.81;88.04
3960;BME280;1994;48.640;8.894;2023-04-09T06:16:09;96740.13;;;6.70;88.65
3960;BME280;1994;48.640;8.894;2023-04-09T06:18:35;96744.13;;;6.86;88.88
3960;BME280;1994;48.640;8.894;2023-04-09T06:21:06;96737.03;;;7.01;88.21
3960;BME280;1994;48.640;8.894;2023-04-09T06:23:34;96742.97;;;7.08;88.45
3960;BME280;1994;48.640;8.894;2023-04-09T06:26:01;96745.97;;;7.18;88.04
3960;BME280;1994;48.640;8.894;2023-04-09T06:28:30;96736.25;;;7.26;87.51
3960;BME280;1994;48.640;8.894;2023-04-09T06:30:57;96739.44;;;7.48;86.65
3960;BME280;1994;48.640;8.894;2023-04-09T06:33:23;96737.84;;;7.73;85.69
3960;BME280;1994;48.640;8.894;2023-04-09T06:35:49;96745.16;;;7.89;85.46
3960;BME280;1994;48.640;8.894;2023-04-09T06:38:15;96745.72;;;7.97;84.78
3960;BME280;1994;48.640;8.894;2023-04-09T06:40:41;96757.22;;;8.08;85.10
3960;BME280;1994;48.640;8.894;2023-04-09T06:43:08;96742.91;;;8.25;83.85
3960;BME280;1994;48.640;8.894;2023-04-09T06:45:35;96741.72;;;8.34;82.86
3960;BME280;1994;48.640;8.894;2023-04-09T06:48:02;96748.84;;;8.32;81.41
3960;BME280;1994;48.640;8.894;2023-04-09T06:50:28;96751.16;;;8.53;80.89
3960;BME280;1994;48.640;8.894;2023-04-09T06:52:54;96749.38;;;8.53;80.55
3960;BME280;1994;48.640;8.894;2023-04-09T06:55:20;96753.50;;;8.61;79.31
3960;BME280;1994;48.640;8.894;2023-04-09T06:57:46;96752.69;;;8.67;79.72
3960;BME280;1994;48.640;8.894;2023-04-09T07:00:12;96757.78;;;8.80;80.03
3960;BME280;1994;48.640;8.894;2023-04-09T07:02:38;96763.03;;;8.98;79.24
3960;BME280;1994;48.640;8.894;2023-04-09T07:05:04;96761.53;;;9.15;78.71
3960;BME280;1994;48.640;8.894;2023-04-09T07:07:30;96757.72;;;9.24;77.60
3960;BME280;1994;48.640;8.894;2023-04-09T07:09:56;96761.13;;;9.18;77.65
3960;BME280;1994;48.640;8.894;2023-04-09T07:12:33;96761.13;;;9.49;77.41
3960;BME280;1994;48.640;8.894;2023-04-09T07:15:06;96764.44;;;9.56;76.67
3960;BME280;1994;48.640;8.894;2023-04-09T07:17:33;96760.44;;;9.60;77.41
3960;BME280;1994;48.640;8.894;2023-04-09T07:19:59;96758.06;;;9.58;75.04
3960;BME280;1994;48.640;8.894;2023-04-09T07:22:28;96760.97;;;9.44;76.32
3960;BME280;1994;48.640;8.894;2023-04-09T07:24:54;96762.13;;;9.48;77.77
3960;BME280;1994;48.640;8.894;2023-04-09T07:27:24;96768.28;;;9.47;77.14
3960;BME280;1994;48.640;8.894;2023-04-09T07:29:50;96769.94;;;9.66;75.75
3960;BME280;1994;48.640;8.894;2023-04-09T07:32:16;96771.84;;;9.52;76.52
3960;BME280;1994;48.640;8.894;2023-04-09T07:34:43;96775.19;;;9.53;75.34
3960;BME280;1994;48.640;8.894;2023-04-09T07:37:08;96774.84;;;9.74;75.45
3960;BME280;1994;48.640;8.894;2023-04-09T07:39:34;96775.19;;;10.02;75.61
3960;BME280;1994;48.640;8.894;2023-04-09T07:42:04;96785.53;;;10.02;74.82
3960;BME280;1994;48.640;8.894;2023-04-09T07:44:34;96775.97;;;10.09;71.65
3960;BME280;1994;48.640;8.894;2023-04-09T07:47:01;96788.84;;;10.33;71.09
3960;BME280;1994;48.640;8.894;2023-04-09T07:49:27;96783.72;;;10.27;69.49
3960;BME280;1994;48.640;8.894;2023-04-09T07:51:53;96783.44;;;10.53;68.07
3960;BME280;1994;48.640;8.894;2023-04-09T07:54:18;96779.53;;;10.62;68.55
3960;BME280;1994;48.640;8.894;2023-04-09T07:56:46;96780.91;;;10.64;68.71
3960;BME280;1994;48.640;8.894;2023-04-09T07:59:12;96778.81;;;10.73;66.78
3960;BME280;1994;48.640;8.894;2023-04-09T08:01:40;96774.91;;;10.82;65.78
3960;BME280;1994;48.640;8.894;2023-04-09T08:04:06;96774.22;;;11.34;63.87
3960;BME280;1994;48.640;8.894;2023-04-09T08:06:32;96774.66;;;11.95;61.08
3960;BME280;1994;48.640;8.894;2023-04-09T08:08:58;96776.28;;;12.58;60.30
3960;BME280;1994;48.640;8.894;2023-04-09T08:11:23;96773.63;;;13.21;56.83
3960;BME280;1994;48.640;8.894;2023-04-09T08:13:52;96775.56;;;14.24;51.28
3960;BME280;1994;48.640;8.894;2023-04-09T08:16:19;96785.13;;;13.86;49.22
3960;BME280;1994;48.640;8.894;2023-04-09T08:18:46;96782.91;;;14.11;50.11
3960;BME280;1994;48.640;8.894;2023-04-09T08:21:12;96782.97;;;14.54;50.26
3960;BME280;1994;48.640;8.894;2023-04-09T08:23:38;96787.72;;;16.16;46.98
3960;BME280;1994;48.640;8.894;2023-04-09T08:26:03;96787.06;;;15.99;44.65
3960;BME280;1994;48.640;8.894;2023-04-09T08:28:29;96787.06;;;15.99;46.77
3960;BME280;1994;48.640;8.894;2023-04-09T08:30:55;96790.97;;;16.38;44.96
3960;BME280;1994;48.640;8.894;2023-04-09T08:33:21;96783.75;;;16.50;43.27
3960;BME280;1994;48.640;8.894;2023-04-09T08:35:46;96792.19;;;14.40;45.98
3960;BME280;1994;48.640;8.894;2023-04-09T08:38:12;96800.28;;;13.00;49.05
3960;BME280;1994;48.640;8.894;2023-04-09T08:40:39;96792.91;;;12.46;51.22
3960;BME280;1994;48.640;8.894;2023-04-09T08:43:06;96793.84;;;12.40;53.07
3960;BME280;1994;48.640;8.894;2023-04-09T08:45:33;96794.75;;;12.11;52.02
3960;BME280;1994;48.640;8.894;2023-04-09T08:48:02;96794.63;;;11.94;52.18
3960;BME280;1994;48.640;8.894;2023-04-09T08:50:31;96797.78;;;11.85;53.33
3960;BME280;1994;48.640;8.894;2023-04-09T08:53:05;96801.84;;;11.81;55.96
3960;BME280;1994;48.640;8.894;2023-04-09T08:55:32;96800.91;;;11.64;55.55
3960;BME280;1994;48.640;8.894;2023-04-09T08:58:05;96797.88;;;11.26;56.72
3960;BME280;1994;48.640;8.894;2023-04-09T09:00:35;96800.91;;;11.23;56.91
3960;BME280;1994;48.640;8.894;2023-04-09T09:03:09;96803.38;;;11.18;57.34
3960;BME280;1994;48.640;8.894;2023-04-09T09:05:38;96803.53;;;11.05;56.30
3960;BME280;1994;48.640;8.894;2023-04-09T09:08:10;96811.91;;;11.07;55.93
3960;BME280;1994;48.640;8.894;2023-04-09T09:10:38;96805.13;;;11.06;57.32
3960;BME280;1994;48.640;8.894;2023-04-09T09:13:25;96802.56;;;11.17;55.75
3960;BME280;1994;48.640;8.894;2023-04-09T09:15:54;96800.91;;;11.23;54.71
3960;BME280;1994;48.640;8.894;2023-04-09T09:18:43;96805.75;;;10.90;54.65
3960;BME280;1994;48.640;8.894;2023-04-09T09:23:36;96804.16;;;11.18;54.51
3960;BME280;1994;48.640;8.894;2023-04-09T09:26:16;96804.31;;;11.35;52.44
3960;BME280;1994;48.640;8.894;2023-04-09T09:28:46;96804.69;;;11.09;51.34
3960;BME280;1994;48.640;8.894;2023-04-09T09:31:14;96818.94;;;11.00;52.81
3960;BME280;1994;48.640;8.894;2023-04-09T09:33:41;96811.06;;;10.95;50.51
3960;BME280;1994;48.640;8.894;2023-04-09T09:36:07;96808.00;;;10.98;50.69
3960;BME280;1994;48.640;8.894;2023-04-09T09:38:53;96810.72;;;10.73;50.84
3960;BME280;1994;48.640;8.894;2023-04-09T09:41:20;96807.66;;;10.94;50.61
3960;BME280;1994;48.640;8.894;2023-04-09T09:43:46;96807.69;;;11.24;51.65
3960;BME280;1994;48.640;8.894;2023-04-09T09:46:12;96817.66;;;12.48;48.74
3960;BME280;1994;48.640;8.894;2023-04-09T09:48:38;96807.25;;;12.60;47.89
3960;BME280;1994;48.640;8.894;2023-04-09T09:51:12;96818.56;;;12.08;48.03
3960;BME280;1994;48.640;8.894;2023-04-09T09:53:40;96816.53;;;11.46;49.17
3960;BME280;1994;48.640;8.894;2023-04-09T09:56:14;96819.34;;;11.44;50.61
3960;BME280;1994;48.640;8.894;2023-04-09T09:58:50;96821.81;;;11.39;51.18
3960;BME280;1994;48.640;8.894;2023-04-09T10:01:19;96818.31;;;11.34;51.86
3960;BME280;1994;48.640;8.894;2023-04-09T10:03:46;96812.28;;;11.22;52.60
3960;BME280;1994;48.640;8.894;2023-04-09T10:06:14;96809.31;;;10.89;53.17
3960;BME280;1994;48.640;8.894;2023-04-09T10:08:42;96810.47;;;10.93;53.84
3960;BME280;1994;48.640;8.894;2023-04-09T10:11:11;96813.00;;;11.11;53.52
3960;BME280;1994;48.640;8.894;2023-04-09T10:13:40;96807.59;;;11.01;53.27
3960;BME280;1994;48.640;8.894;2023-04-09T10:16:08;96809.44;;;11.12;52.61
3960;BME280;1994;48.640;8.894;2023-04-09T10:18:34;96808.00;;;10.98;52.07
3960;BME280;1994;48.640;8.894;2023-04-09T10:21:25;96807.47;;;11.07;51.42
3960;BME280;1994;48.640;8.894;2023-04-09T10:23:53;96808.97;;;10.85;51.54
3960;BME280;1994;48.640;8.894;2023-04-09T10:26:19;96803.00;;;10.85;52.34
3960;BME280;1994;48.640;8.894;2023-04-09T10:28:49;96805.16;;;10.70;52.65
3960;BME280;1994;48.640;8.894;2023-04-09T10:31:27;96799.34;;;11.04;53.11
3960;BME280;1994;48.640;8.894;2023-04-09T10:33:53;96800.66;;;11.13;51.09
3960;BME280;1994;48.640;8.894;2023-04-09T10:36:18;96808.09;;;11.21;51.60
3960;BME280;1994;48.640;8.894;2023-04-09T10:38:46;96803.78;;;11.15;51.43
3960;BME280;1994;48.640;8.894;2023-04-09T10:41:28;96805.03;;;11.12;50.93
3960;BME280;1994;48.640;8.894;2023-04-09T10:43:54;96813.88;;;11.23;50.23
3960;BME280;1994;48.640;8.894;2023-04-09T10:46:34;96809.19;;;11.13;49.84
3960;BME280;1994;48.640;8.894;2023-04-09T10:49:30;96810.75;;;11.03;49.00
3960;BME280;1994;48.640;8.894;2023-04-09T10:52:10;96804.13;;;10.89;50.70
3960;BME280;1994;48.640;8.894;2023-04-09T10:54:39;96798.94;;;11.07;50.34
3960;BME280;1994;48.640;8.894;2023-04-09T10:57:21;96802.22;;;11.14;50.32
3960;BME280;1994;48.640;8.894;2023-04-09T10:59:49;96795.72;;;10.93;50.46
3960;BME280;1994;48.640;8.894;2023-04-09T11:05:32;96794.03;;;11.28;51.36
3960;BME280;1994;48.640;8.894;2023-04-09T11:08:08;96795.53;;;11.36;48.63
3960;BME280;1994;48.640;8.894;2023-04-09T11:10:34;96796.56;;;11.99;47.83
3960;BME280;1994;48.640;8.894;2023-04-09T11:13:01;96793.63;;;12.07;49.61
3960;BME280;1994;48.640;8.894;2023-04-09T11:15:27;96781.91;;;11.93;47.32
3960;BME280;1994;48.640;8.894;2023-04-09T11:17:54;96786.63;;;12.19;47.60
3960;BME280;1994;48.640;8.894;2023-04-09T11:20:22;96781.44;;;12.19;47.97
3960;BME280;1994;48.640;8.894;2023-04-09T11:22:49;96791.91;;;11.89;48.18
3960;BME280;1994;48.640;8.894;2023-04-09T11:25:30;96790.94;;;11.49;46.07
3960;BME280;1994;48.640;8.894;2023-04-09T11:27:57;96783.38;;;11.48;46.56
3960;BME280;1994;48.640;8.894;2023-04-09T11:30:23;96783.56;;;11.35;46.78
3960;BME280;1994;48.640;8.894;2023-04-09T11:32:49;96786.47;;;11.27;47.73
3960;BME280;1994;48.640;8.894;2023-04-09T11:35:20;96782.34;;;11.37;47.46
3960;BME280;1994;48.640;8.894;2023-04-09T11:37:47;96783.84;;;11.45;46.49
3960;BME280;1994;48.640;8.894;2023-04-09T11:40:22;96791.56;;;11.63;48.36
3960;BME280;1994;48.640;8.894;2023-04-09T11:42:52;96791.69;;;11.68;47.72
3960;BME280;1994;48.640;8.894;2023-04-09T11:45:26;96794.09;;;11.51;47.65
3960;BME280;1994;48.640;8.894;2023-04-09T11:47:53;96784.38;;;11.47;48.70
3960;BME280;1994;48.640;8.894;2023-04-09T11:50:20;96796.59;;;11.58;46.71
3960;BME280;1994;48.640;8.894;2023-04-09T11:52:47;96797.81;;;11.55;48.45
3960;BME280;1994;48.640;8.894;2023-04-09T11:55:29;96787.06;;;11.70;47.10
3960;BME280;1994;48.640;8.894;2023-04-09T11:57:59;96791.03;;;11.43;47.77
3960;BME280;1994;48.640;8.894;2023-04-09T12:00:27;96797.31;;;11.65;47.61
3960;BME280;1994;48.640;8.894;2023-04-09T12:03:02;96798.16;;;12.00;46.99
3960;BME280;1994;48.640;8.894;2023-04-09T12:05:31;96793.13;;;11.64;47.51
3960;BME280;1994;48.640;8.894;2023-04-09T12:08:00;96803.34;;;11.77;47.21
3960;BME280;1994;48.640;8.894;2023-04-09T12:10:36;96793.88;;;11.94;47.96
3960;BME280;1994;48.640;8.894;2023-04-09T12:13:05;96793.88;;;11.94;47.22
3960;BME280;1994;48.640;8.894;2023-04-09T12:15:39;96798.81;;;11.84;46.55
3960;BME280;1994;48.640;8.894;2023-04-09T12:18:11;96787.06;;;12.39;45.18
3960;BME280;1994;48.640;8.894;2023-04-09T12:20:39;96784.88;;;13.10;43.65
3960;BME280;1994;48.640;8.894;2023-04-09T12:23:06;96789.88;;;13.28;43.77
3960;BME280;1994;48.640;8.894;2023-04-09T12:25:43;96782.75;;;13.68;42.44
3960;BME280;1994;48.640;8.894;2023-04-09T12:28:12;96783.69;;;13.78;42.47
3960;BME280;1994;48.640;8.894;2023-04-09T12:30:40;96778.47;;;14.28;42.64
3960;BME280;1994;48.640;8.894;2023-04-09T12:33:07;96780.09;;;14.72;41.97
3960;BME280;1994;48.640;8.894;2023-04-09T12:35:32;96775.66;;;13.80;43.26
3960;BME280;1994;48.640;8.894;2023-04-09T12:37:59;96767.81;;;14.94;43.54
3960;BME280;1994;48.640;8.894;2023-04-09T12:40:25;96765.47;;;15.19;41.63
3960;BME280;1994;48.640;8.894;2023-04-09T12:42:52;96759.78;;;15.00;41.76
3960;BME280;1994;48.640;8.894;2023-04-09T12:45:20;96762.84;;;14.28;42.14
3960;BME280;1994;48.640;8.894;2023-04-09T12:47:46;96772.53;;;14.54;42.77
3960;BME280;1994;48.640;8.894;2023-04-09T12:50:13;96761.25;;;14.70;41.82
3960;BME280;1994;48.640;8.894;2023-04-09T12:52:43;96762.44;;;14.79;40.93
3960;BME280;1994;48.640;8.894;2023-04-09T12:55:09;96760.06;;;14.56;42.64
3960;BME280;1994;48.640;8.894;2023-04-09T12:57:37;96755.91;;;15.29;40.85
3960;BME280;1994;48.640;8.894;2023-04-09T13:00:05;96758.00;;;15.54;40.48
3960;BME280;1994;48.640;8.894;2023-04-09T13:02:32;96753.13;;;16.04;38.52
3960;BME280;1994;48.640;8.894;2023-04-09T13:04:58;96745.56;;;16.49;39.60
3960;BME280;1994;48.640;8.894;2023-04-09T13:07:24;96744.78;;;16.02;38.07
3960;BME280;1994;48.640;8.894;2023-04-09T13:09:54;96749.31;;;15.22;38.88
3960;BME280;1994;48.640;8.894;2023-04-09T13:12:20;96738.88;;;15.22;39.56
3960;BME280;1994;48.640;8.894;2023-04-09T13:14:49;96726.81;;;15.16;39.04
3960;BME280;1994;48.640;8.894;2023-04-09T13:17:15;96737.19;;;15.64;39.48
3960;BME280;1994;48.640;8.894;2023-04-09T13:19:41;96735.53;;;15.53;38.49
3960;BME280;1994;48.640;8.894;2023-04-09T13:22:07;96742.97;;;15.71;38.44
3960;BME280;1994;48.640;8.894;2023-04-09T13:24:37;96734.38;;;15.75;37.88
3960;BME280;1994;48.640;8.894;2023-04-09T13:27:05;96735.25;;;15.86;38.73
3960;BME280;1994;48.640;8.894;2023-04-09T13:29:31;96737.06;;;15.49;38.00
3960;BME280;1994;48.640;8.894;2023-04-09T13:31:57;96727.75;;;15.05;39.23
3960;BME280;1994;48.640;8.894;2023-04-09T13:34:23;96726.16;;;15.57;38.97
3960;BME280;1994;48.640;8.894;2023-04-09T13:36:49;96718.25;;;16.25;39.93
3960;BME280;1994;48.640;8.894;2023-04-09T13:39:15;96727.06;;;16.14;36.87
3960;BME280;1994;48.640;8.894;2023-04-09T13:41:41;96718.22;;;16.20;37.38
3960;BME280;1994;48.640;8.894;2023-04-09T13:44:08;96722.97;;;15.86;38.04